Memphis, TN

9:43 PM CDT on June 27, 2017 (GMT -0500)
East Memphis | | Change Station

Elev 331 ft 35.13 °N, 89.87 °W | Updated 10 days ago

Clear
Clear
87.8 °F
Feels Like 98 °F
N
0.0
Wind Variable Wind from North
Gusts 0.0 mph

Today
High -- | Low -- °F
--% Chance of Precip.
Yesterday
High -- | Low -- °F
Precip. -- in
Pressure 30.02 in
Visibility 10.0 miles
Clouds Few 5500 ft
Few 9000 ft
Scattered Clouds 25000 ft
Heat Index 98 °F
Dew Point 76 °F
Humidity 67%
Rainfall 0.00 in
Snow Depth Not available.
5:47 AM 8:17 PM
Waxing Crescent, 21% visible
METAR KMEM 280154Z 10007KT 10SM FEW055 FEW090 SCT250 26/17 A3003 RMK AO2 SLP164 T02610172
Pressure 30.02 in
Visibility 10.0 miles
Clouds Few 5500 ft
Few 9000 ft
Scattered Clouds 25000 ft
Heat Index 98 °F
Dew Point 76 °F
Humidity 67%
Rainfall 0.00 in
Snow Depth Not available.
5:47 AM 8:17 PM
Waxing Crescent, 21% visible
METAR KMEM 280154Z 10007KT 10SM FEW055 FEW090 SCT250 26/17 A3003 RMK AO2 SLP164 T02610172

Get Severe Weather Alerts

Thanks for signing up!

Be on the lookout for a verification email in your inbox.

You'll start receiving the daily forecast at 6 AM.

×

10-Day Weather Forecast

Almanac

Astronomy

Jun. 27, 2017 Rise Set
Actual Time
Civil Twilight
Nautical Twilight
Astronomical Twilight
Moon
Length of Visible Light
Length of Day
Tomorrow will be .
, % of the Moon is Illuminated

Today's Extremes

State Highs State Lows

Community

WunderPhotos

Category 6

Welcome to Category 6. This is the collective home for Weather Underground's featured writeups by Dr. Jeff Masters (right), Bob Henson (left), Chris Burt, and other regular contributors.

Nearby

Air Quality

  Air Quality AQ Index Pollutant
Not available.

Snow Depth

Station Depth Elevation

Earthquake Activity

City Distance Mag. Time & Date
Minimum magnitude displayed is 2.5.

Coastal Water Temperatures

Place Temperature

Stations

Nearby Weather Stations

Station Location Temp. Windchill Dew Point Humidity Wind Precip. Elev Updated Type
                   

Watches & Warnings

There are currently no watches in effect.